createdAt,value
2017-10-30T00:00:10.545Z,21.32
2017-10-30T00:00:42.208Z,21.31
2017-10-30T00:01:14.136Z,21.31
2017-10-30T00:01:46.019Z,21.32
2017-10-30T00:02:17.662Z,21.30
2017-10-30T00:02:49.985Z,21.31
2017-10-30T00:03:21.639Z,21.30
2017-10-30T00:03:53.579Z,21.29
2017-10-30T00:04:25.237Z,21.28
2017-10-30T00:04:56.881Z,21.27
2017-10-30T00:05:28.530Z,21.27
2017-10-30T00:06:00.182Z,21.27
2017-10-30T00:06:31.828Z,21.26
2017-10-30T00:07:03.603Z,21.24
2017-10-30T00:07:35.377Z,21.24
2017-10-30T00:08:07.328Z,21.23
2017-10-30T00:08:38.978Z,21.22
2017-10-30T00:09:10.674Z,21.22
2017-10-30T00:09:42.560Z,21.21
2017-10-30T00:10:14.444Z,21.22
2017-10-30T00:10:46.098Z,21.22
2017-10-30T00:11:17.749Z,21.21
2017-10-30T00:11:49.433Z,21.21
2017-10-30T00:12:21.413Z,21.20
2017-10-30T00:12:53.070Z,21.21
2017-10-30T00:13:24.720Z,21.20
2017-10-30T00:13:56.652Z,21.19
2017-10-30T00:14:28.568Z,21.20
2017-10-30T00:15:00.214Z,21.19
2017-10-30T00:15:31.861Z,21.19
2017-10-30T00:16:03.509Z,21.19
2017-10-30T00:16:35.158Z,21.18
2017-10-30T00:17:06.806Z,21.17
2017-10-30T00:17:38.502Z,21.16
2017-10-30T00:18:10.366Z,21.16
2017-10-30T00:18:42.244Z,21.16
2017-10-30T00:19:13.957Z,21.16
2017-10-30T00:19:45.906Z,21.16
2017-10-30T00:20:17.558Z,21.15
2017-10-30T00:20:52.926Z,21.15
2017-10-30T00:21:24.577Z,21.15
2017-10-30T00:21:56.222Z,21.15
2017-10-30T00:22:28.107Z,21.15
2017-10-30T00:23:00.356Z,21.14
2017-10-30T00:23:32.280Z,21.14
2017-10-30T00:24:03.953Z,21.14
2017-10-30T00:24:35.641Z,21.13
2017-10-30T00:25:07.290Z,21.13
2017-10-30T00:25:38.937Z,21.12
2017-10-30T00:26:10.586Z,21.12
2017-10-30T00:26:42.238Z,21.11
2017-10-30T00:27:13.885Z,21.10
2017-10-30T00:27:45.758Z,21.11
2017-10-30T00:28:17.409Z,21.11
2017-10-30T00:28:49.054Z,21.10
2017-10-30T00:29:20.882Z,21.10
2017-10-30T00:29:52.638Z,21.11
2017-10-30T00:30:24.285Z,21.10
2017-10-30T00:30:55.930Z,21.09
2017-10-30T00:31:27.578Z,21.11
2017-10-30T00:31:59.222Z,21.10
2017-10-30T00:32:30.882Z,21.10
2017-10-30T00:33:02.529Z,21.10
2017-10-30T00:33:34.324Z,21.09
2017-10-30T00:34:06.022Z,21.09
2017-10-30T00:34:37.669Z,21.09
2017-10-30T00:35:09.318Z,21.08
2017-10-30T00:35:40.973Z,21.09
2017-10-30T00:36:12.641Z,21.09
2017-10-30T00:36:44.517Z,21.09
2017-10-30T00:37:16.162Z,21.09
2017-10-30T00:37:47.805Z,21.08
2017-10-30T00:38:19.457Z,21.06
2017-10-30T00:38:51.105Z,21.06
2017-10-30T00:39:23.108Z,21.06
2017-10-30T00:39:54.945Z,21.06
2017-10-30T00:40:26.699Z,21.06
2017-10-30T00:40:58.529Z,21.06
2017-10-30T00:41:30.291Z,21.06
2017-10-30T00:42:01.945Z,21.05
2017-10-30T00:42:33.596Z,21.05
2017-10-30T00:43:05.245Z,21.03
2017-10-30T00:43:36.894Z,21.03
2017-10-30T00:44:08.542Z,21.03
2017-10-30T00:44:40.369Z,21.03
2017-10-30T00:45:12.021Z,21.03
2017-10-30T00:45:43.673Z,21.03
2017-10-30T00:46:15.318Z,21.02
2017-10-30T00:46:46.969Z,21.02
2017-10-30T00:47:18.662Z,21.04
2017-10-30T00:47:50.310Z,21.09
2017-10-30T00:48:21.954Z,21.10
2017-10-30T00:48:53.645Z,21.09
2017-10-30T00:49:25.533Z,21.06
2017-10-30T00:49:57.180Z,21.04
2017-10-30T00:50:28.827Z,21.02
2017-10-30T00:51:00.477Z,21.02
2017-10-30T00:51:32.124Z,21.01
2017-10-30T00:52:03.767Z,21.01
2017-10-30T00:52:35.413Z,21.00
2017-10-30T00:53:07.061Z,20.98
2017-10-30T00:53:38.702Z,20.98
2017-10-30T00:54:10.354Z,20.98
2017-10-30T00:54:42.025Z,20.99
2017-10-30T00:55:13.901Z,20.98
2017-10-30T00:55:45.554Z,20.98
2017-10-30T00:56:17.202Z,20.99
2017-10-30T00:56:48.849Z,20.98
2017-10-30T00:57:20.503Z,20.96
2017-10-30T00:57:52.310Z,20.98
2017-10-30T00:58:24.059Z,20.97
2017-10-30T00:58:55.709Z,20.97
2017-10-30T00:59:27.358Z,20.94
2017-10-30T00:59:59.065Z,20.94
2017-10-30T01:01:14.557Z,20.95
2017-10-30T01:01:46.507Z,20.94
2017-10-30T01:02:18.158Z,20.94
2017-10-30T01:02:49.811Z,20.94
2017-10-30T01:03:21.470Z,20.93
2017-10-30T01:03:53.117Z,20.92
2017-10-30T01:04:24.765Z,20.93
2017-10-30T01:04:56.417Z,20.93
2017-10-30T01:05:28.066Z,20.93
2017-10-30T01:05:59.769Z,20.92
2017-10-30T01:06:31.418Z,20.91
2017-10-30T01:07:03.062Z,20.91
2017-10-30T01:07:34.714Z,20.91
2017-10-30T01:08:06.361Z,20.90
2017-10-30T01:08:38.013Z,20.91
2017-10-30T01:09:09.800Z,20.90
2017-10-30T01:09:41.449Z,20.90
2017-10-30T01:10:13.097Z,20.89
2017-10-30T01:10:44.745Z,20.87
2017-10-30T01:11:16.641Z,20.88
2017-10-30T01:11:48.315Z,20.88
2017-10-30T01:12:19.965Z,20.88
2017-10-30T01:12:51.610Z,20.87
2017-10-30T01:13:23.253Z,20.87
2017-10-30T01:13:54.898Z,20.87
2017-10-30T01:14:26.545Z,20.86
2017-10-30T01:14:58.190Z,20.86
2017-10-30T01:15:29.838Z,20.86
2017-10-30T01:16:01.482Z,20.87
2017-10-30T01:16:33.162Z,20.86
2017-10-30T01:17:05.043Z,20.87
2017-10-30T01:17:36.706Z,20.87
2017-10-30T01:18:08.361Z,20.87
2017-10-30T01:18:40.014Z,20.88
2017-10-30T01:19:11.817Z,20.89
2017-10-30T01:19:43.466Z,20.88
2017-10-30T01:20:15.109Z,20.88
2017-10-30T01:20:46.797Z,20.89
2017-10-30T01:21:18.441Z,20.90
2017-10-30T01:21:50.634Z,20.90
2017-10-30T01:22:22.383Z,20.92
2017-10-30T01:22:54.257Z,20.92
2017-10-30T01:23:25.971Z,20.94
2017-10-30T01:23:57.923Z,20.96
2017-10-30T01:24:29.752Z,20.97
2017-10-30T01:25:01.441Z,20.98
2017-10-30T01:25:33.086Z,21.00
2017-10-30T01:26:04.734Z,21.01
2017-10-30T01:26:36.381Z,21.02
2017-10-30T01:27:08.080Z,21.03
2017-10-30T01:27:39.917Z,21.04
2017-10-30T01:28:11.673Z,21.04
2017-10-30T01:28:43.321Z,21.06
2017-10-30T01:29:15.155Z,21.06
2017-10-30T01:29:46.910Z,21.09
2017-10-30T01:30:18.760Z,21.09
2017-10-30T01:30:50.593Z,21.08
2017-10-30T01:31:22.446Z,21.12
2017-10-30T01:31:54.331Z,21.13
2017-10-30T01:32:26.038Z,21.13
2017-10-30T01:32:57.690Z,21.13
2017-10-30T01:33:29.334Z,21.13
2017-10-30T01:34:00.986Z,21.14
2017-10-30T01:34:32.629Z,21.15
2017-10-30T01:35:04.274Z,21.17
2017-10-30T01:35:36.147Z,21.17
2017-10-30T01:36:07.838Z,21.17
2017-10-30T01:36:39.492Z,21.17
2017-10-30T01:37:11.317Z,21.18
2017-10-30T01:37:43.071Z,21.19
2017-10-30T01:38:14.724Z,21.19
2017-10-30T01:38:46.611Z,21.20
2017-10-30T01:39:18.258Z,21.20
2017-10-30T01:39:49.905Z,21.19
2017-10-30T01:40:21.558Z,21.19
2017-10-30T01:40:53.246Z,21.19
2017-10-30T01:41:24.889Z,21.19
2017-10-30T01:41:56.538Z,21.18
2017-10-30T01:42:28.182Z,21.18
2017-10-30T01:42:59.832Z,21.19
2017-10-30T01:43:31.490Z,21.18
2017-10-30T01:44:03.389Z,21.19
2017-10-30T01:44:35.342Z,21.18
2017-10-30T01:45:06.990Z,21.17
2017-10-30T01:45:38.641Z,21.17
2017-10-30T01:46:10.514Z,21.16
2017-10-30T01:46:42.169Z,21.16
2017-10-30T01:47:13.814Z,21.14
2017-10-30T01:47:45.513Z,21.13
2017-10-30T01:48:17.154Z,21.12
2017-10-30T01:48:48.798Z,21.11
2017-10-30T01:49:20.446Z,21.10
2017-10-30T01:49:52.101Z,21.09
2017-10-30T01:50:23.742Z,21.08
2017-10-30T01:50:55.385Z,21.07
2017-10-30T01:51:27.033Z,21.07
2017-10-30T01:51:58.681Z,21.06
2017-10-30T01:52:30.334Z,21.06
2017-10-30T01:53:02.026Z,21.05
2017-10-30T01:53:33.669Z,21.05
2017-10-30T01:54:05.318Z,21.03
2017-10-30T01:54:36.961Z,21.03
2017-10-30T01:55:08.605Z,21.02
2017-10-30T01:55:40.249Z,21.02
2017-10-30T01:56:11.909Z,21.01
2017-10-30T01:56:43.551Z,21.00
2017-10-30T01:57:15.217Z,21.01
2017-10-30T01:57:46.905Z,21.00
2017-10-30T01:58:18.546Z,21.00
2017-10-30T01:58:50.233Z,21.00
2017-10-30T01:59:22.124Z,21.00
2017-10-30T01:59:53.873Z,20.98
2017-10-30T02:00:25.771Z,20.98
2017-10-30T02:00:57.417Z,20.97
2017-10-30T02:01:29.070Z,20.96
2017-10-30T02:02:00.725Z,20.95
2017-10-30T02:02:32.387Z,20.95
2017-10-30T02:03:04.263Z,20.93
2017-10-30T02:03:35.981Z,20.93
2017-10-30T02:04:07.930Z,20.90
2017-10-30T02:04:39.880Z,20.90
2017-10-30T02:05:11.530Z,20.89
2017-10-30T02:05:43.214Z,20.89
2017-10-30T02:06:14.861Z,20.91
2017-10-30T02:06:46.554Z,20.91
2017-10-30T02:07:18.202Z,20.93
2017-10-30T02:07:49.850Z,20.92
2017-10-30T02:08:21.500Z,20.91
2017-10-30T02:08:53.145Z,20.90
2017-10-30T02:09:24.789Z,20.91
2017-10-30T02:09:56.445Z,20.91
2017-10-30T02:10:28.094Z,20.90
2017-10-30T02:10:59.758Z,20.90
2017-10-30T02:11:31.445Z,20.90
2017-10-30T02:12:03.089Z,20.91
2017-10-30T02:12:34.738Z,20.90
2017-10-30T02:13:06.386Z,20.89
2017-10-30T02:13:38.026Z,20.88
2017-10-30T02:14:09.674Z,20.89
2017-10-30T02:14:41.317Z,20.89
2017-10-30T02:15:12.966Z,20.88
2017-10-30T02:15:44.613Z,20.87
2017-10-30T02:16:16.266Z,20.86
2017-10-30T02:16:48.258Z,20.86
2017-10-30T02:17:20.209Z,20.85
2017-10-30T02:17:51.858Z,20.85
2017-10-30T02:18:23.505Z,20.84
2017-10-30T02:18:55.155Z,20.85
2017-10-30T02:19:26.806Z,20.84
2017-10-30T02:19:58.449Z,20.84
2017-10-30T02:20:30.089Z,20.83
2017-10-30T02:21:01.738Z,20.83
2017-10-30T02:21:33.650Z,20.84
2017-10-30T02:22:05.306Z,20.83
2017-10-30T02:22:36.958Z,20.83
2017-10-30T02:23:08.601Z,20.83
2017-10-30T02:23:40.241Z,20.83
2017-10-30T02:24:11.890Z,20.82
2017-10-30T02:24:43.533Z,20.82
2017-10-30T02:25:15.450Z,20.82
2017-10-30T02:25:47.137Z,20.83
2017-10-30T02:26:18.789Z,20.82
2017-10-30T02:26:50.683Z,20.81
2017-10-30T02:27:22.337Z,20.82
2017-10-30T02:27:53.985Z,20.82
2017-10-30T02:28:25.629Z,20.82
2017-10-30T02:28:57.274Z,20.80
2017-10-30T02:29:28.961Z,20.80
2017-10-30T02:30:00.738Z,20.79
2017-10-30T02:30:32.493Z,20.79
2017-10-30T02:31:04.153Z,20.79
2017-10-30T02:31:35.802Z,20.80
2017-10-30T02:32:07.450Z,20.80
2017-10-30T02:32:39.104Z,20.79
2017-10-30T02:33:10.758Z,20.78
2017-10-30T02:33:42.409Z,20.77
2017-10-30T02:34:14.284Z,20.76
2017-10-30T02:34:45.944Z,20.74
2017-10-30T02:35:17.589Z,20.74
2017-10-30T02:35:49.238Z,20.76
2017-10-30T02:36:21.117Z,20.77
2017-10-30T02:36:52.800Z,20.80
2017-10-30T02:37:24.450Z,20.81
2017-10-30T02:37:56.097Z,20.81
2017-10-30T02:38:27.741Z,20.82
2017-10-30T02:38:59.386Z,20.82
2017-10-30T02:39:31.030Z,20.83
2017-10-30T02:40:02.683Z,20.83
2017-10-30T02:40:34.325Z,20.83
2017-10-30T02:41:05.969Z,20.82
2017-10-30T02:41:37.778Z,20.82
2017-10-30T02:42:09.527Z,20.81
2017-10-30T02:42:41.182Z,20.81
2017-10-30T02:43:12.825Z,20.80
2017-10-30T02:43:44.474Z,20.80
2017-10-30T02:44:16.118Z,20.79
2017-10-30T02:44:47.765Z,20.80
2017-10-30T02:45:19.578Z,20.79
2017-10-30T02:45:51.327Z,20.80
2017-10-30T02:46:23.162Z,20.79
2017-10-30T02:46:54.854Z,20.80
2017-10-30T02:47:26.502Z,20.79
2017-10-30T02:47:58.150Z,20.78
2017-10-30T02:48:29.806Z,20.79
2017-10-30T02:49:01.483Z,20.77
2017-10-30T02:49:33.129Z,20.77
2017-10-30T02:50:04.814Z,20.76
2017-10-30T02:50:36.461Z,20.76
2017-10-30T02:51:08.110Z,20.76
2017-10-30T02:51:39.753Z,20.75
2017-10-30T02:52:11.397Z,20.75
2017-10-30T02:52:43.286Z,20.74
2017-10-30T02:53:15.168Z,20.74
2017-10-30T02:53:46.814Z,20.74
2017-10-30T02:54:18.461Z,20.73
2017-10-30T02:54:50.111Z,20.74
2017-10-30T02:55:21.814Z,20.73
2017-10-30T02:55:53.461Z,20.72
2017-10-30T02:56:25.106Z,20.72
2017-10-30T02:56:56.757Z,20.72
2017-10-30T02:57:28.405Z,20.71
2017-10-30T02:58:00.045Z,20.71
2017-10-30T02:58:31.694Z,20.72
2017-10-30T02:59:03.341Z,20.72
2017-10-30T02:59:34.990Z,20.72
2017-10-30T03:00:06.638Z,20.72
2017-10-30T03:00:38.529Z,20.73
2017-10-30T03:01:10.182Z,20.71
2017-10-30T03:01:41.834Z,20.70
2017-10-30T03:02:13.496Z,20.70
2017-10-30T03:02:45.145Z,20.71
2017-10-30T03:03:16.793Z,20.71
2017-10-30T03:03:48.579Z,20.70
2017-10-30T03:04:20.329Z,20.69
2017-10-30T03:04:52.018Z,20.68
2017-10-30T03:05:23.678Z,20.69
2017-10-30T03:05:55.564Z,20.70
2017-10-30T03:06:27.213Z,20.71
2017-10-30T03:06:58.857Z,20.71
2017-10-30T03:07:30.506Z,20.71
2017-10-30T03:08:02.153Z,20.68
2017-10-30T03:08:33.838Z,20.70
2017-10-30T03:09:05.722Z,20.70
2017-10-30T03:09:37.569Z,20.70
2017-10-30T03:10:09.312Z,20.70
2017-10-30T03:10:40.962Z,20.71
2017-10-30T03:11:12.609Z,20.70
2017-10-30T03:11:44.253Z,20.70
2017-10-30T03:12:15.902Z,20.71
2017-10-30T03:12:47.553Z,20.71
2017-10-30T03:13:19.197Z,20.71
2017-10-30T03:13:50.841Z,20.71
2017-10-30T03:14:22.489Z,20.72
2017-10-30T03:14:54.138Z,20.73
2017-10-30T03:15:26.038Z,20.74
2017-10-30T03:15:57.941Z,20.73
2017-10-30T03:16:29.590Z,20.73
2017-10-30T03:17:01.267Z,20.74
2017-10-30T03:17:32.961Z,20.75
2017-10-30T03:18:04.614Z,20.77
2017-10-30T03:18:36.258Z,20.77
2017-10-30T03:19:07.902Z,20.78
2017-10-30T03:19:39.789Z,20.79
2017-10-30T03:20:11.453Z,20.80
2017-10-30T03:20:43.097Z,20.80
2017-10-30T03:21:14.745Z,20.80
2017-10-30T03:21:46.394Z,20.81
2017-10-30T03:22:18.038Z,20.81
2017-10-30T03:22:50.249Z,20.82
2017-10-30T03:23:22.203Z,20.84
2017-10-30T03:23:54.153Z,20.85
2017-10-30T03:24:25.801Z,20.85
2017-10-30T03:24:57.446Z,20.86
2017-10-30T03:25:29.089Z,20.87
2017-10-30T03:26:00.732Z,20.88
2017-10-30T03:26:32.377Z,20.87
2017-10-30T03:27:04.219Z,20.89
2017-10-30T03:27:35.874Z,20.92
2017-10-30T03:28:07.517Z,20.94
2017-10-30T03:28:39.165Z,20.96
2017-10-30T03:29:10.878Z,20.95
2017-10-30T03:29:42.828Z,20.98
2017-10-30T03:30:14.491Z,21.00
2017-10-30T03:30:46.150Z,21.01
2017-10-30T03:31:17.814Z,21.02
2017-10-30T03:31:49.514Z,21.01
2017-10-30T03:32:21.162Z,21.00
2017-10-30T03:32:52.805Z,21.01
2017-10-30T03:33:24.445Z,21.00
2017-10-30T03:33:56.090Z,21.00
2017-10-30T03:34:27.734Z,20.99
2017-10-30T03:34:59.378Z,21.00
2017-10-30T03:35:31.021Z,20.98
2017-10-30T03:36:02.670Z,20.98
2017-10-30T03:36:34.314Z,20.98
2017-10-30T03:37:06.121Z,20.98
2017-10-30T03:37:37.770Z,20.97
2017-10-30T03:38:09.457Z,20.95
2017-10-30T03:38:41.354Z,20.95
2017-10-30T03:39:13.183Z,20.93
2017-10-30T03:39:44.945Z,20.93
2017-10-30T03:40:16.780Z,20.91
2017-10-30T03:40:48.535Z,20.90
2017-10-30T03:41:20.489Z,20.90
2017-10-30T03:41:52.138Z,20.88
2017-10-30T03:42:23.825Z,20.87
2017-10-30T03:42:55.718Z,20.86
2017-10-30T03:43:27.373Z,20.84
2017-10-30T03:43:59.021Z,20.83
2017-10-30T03:44:30.950Z,20.82
2017-10-30T03:45:02.978Z,20.81
2017-10-30T03:45:34.849Z,20.80
2017-10-30T03:46:06.498Z,20.80
2017-10-30T03:46:38.149Z,20.79
2017-10-30T03:47:09.793Z,20.77
2017-10-30T03:47:41.438Z,20.78
2017-10-30T03:48:13.085Z,20.77
2017-10-30T03:48:44.725Z,20.78
2017-10-30T03:49:16.373Z,20.77
2017-10-30T03:49:48.252Z,20.76
2017-10-30T03:50:19.934Z,20.75
2017-10-30T03:50:51.882Z,20.75
2017-10-30T03:51:23.537Z,20.75
2017-10-30T03:51:55.190Z,20.75
2017-10-30T03:52:26.835Z,20.75
2017-10-30T03:52:58.485Z,20.74
2017-10-30T03:53:30.366Z,20.73
2017-10-30T03:54:02.038Z,20.74
2017-10-30T03:54:33.722Z,20.73
2017-10-30T03:55:05.587Z,20.75
2017-10-30T03:55:37.235Z,20.75
2017-10-30T03:56:08.916Z,20.73
2017-10-30T03:56:40.569Z,20.74
2017-10-30T03:57:12.221Z,20.73
2017-10-30T03:57:43.869Z,20.72
2017-10-30T03:58:15.509Z,20.71
2017-10-30T03:58:47.155Z,20.70
2017-10-30T03:59:18.798Z,20.69
2017-10-30T03:59:50.441Z,20.69
2017-10-30T04:00:22.090Z,20.69
2017-10-30T04:00:53.734Z,20.68
2017-10-30T04:01:25.381Z,20.67
2017-10-30T04:01:57.025Z,20.67
2017-10-30T04:02:28.677Z,20.66
2017-10-30T04:03:00.321Z,20.66
2017-10-30T04:03:31.970Z,20.66
2017-10-30T04:04:03.614Z,20.65
2017-10-30T04:04:35.493Z,20.65
2017-10-30T04:05:07.182Z,20.64
2017-10-30T04:05:38.833Z,20.62
2017-10-30T04:06:10.477Z,20.60
2017-10-30T04:06:42.253Z,20.61
2017-10-30T04:07:14.011Z,20.62
2017-10-30T04:07:45.664Z,20.62
2017-10-30T04:08:17.313Z,20.62
2017-10-30T04:08:48.956Z,20.63
2017-10-30T04:09:20.606Z,20.64
2017-10-30T04:09:52.249Z,20.63
2017-10-30T04:10:23.902Z,20.63
2017-10-30T04:10:55.549Z,20.63
2017-10-30T04:11:27.193Z,20.62
2017-10-30T04:11:58.841Z,20.62
2017-10-30T04:12:30.736Z,20.62
2017-10-30T04:13:02.385Z,20.61
2017-10-30T04:13:34.042Z,20.61
2017-10-30T04:14:05.687Z,20.61
2017-10-30T04:14:37.807Z,20.62
2017-10-30T04:15:09.502Z,20.63
2017-10-30T04:15:41.145Z,20.62
2017-10-30T04:16:12.793Z,20.61
2017-10-30T04:16:44.442Z,20.60
2017-10-30T04:17:16.125Z,20.61
2017-10-30T04:17:47.777Z,20.61
2017-10-30T04:18:19.425Z,20.62
2017-10-30T04:18:51.070Z,20.61
2017-10-30T04:19:22.718Z,20.61
2017-10-30T04:19:54.362Z,20.61
2017-10-30T04:20:26.237Z,20.61
2017-10-30T04:20:57.881Z,20.60
2017-10-30T04:21:29.535Z,20.62
2017-10-30T04:22:01.216Z,20.61
2017-10-30T04:22:32.911Z,20.60
2017-10-30T04:23:04.754Z,20.59
2017-10-30T04:23:36.398Z,20.59
2017-10-30T04:24:08.041Z,20.58
2017-10-30T04:24:39.690Z,20.57
2017-10-30T04:25:11.371Z,20.56
2017-10-30T04:25:43.320Z,20.56
2017-10-30T04:26:15.144Z,20.56
2017-10-30T04:26:46.829Z,20.55
2017-10-30T04:27:18.470Z,20.55
2017-10-30T04:27:50.118Z,20.54
2017-10-30T04:28:21.769Z,20.54
2017-10-30T04:28:53.416Z,20.56
2017-10-30T04:29:25.058Z,20.55
2017-10-30T04:29:56.761Z,20.54
2017-10-30T04:30:28.413Z,20.55
2017-10-30T04:31:00.101Z,20.55
2017-10-30T04:31:31.879Z,20.55
2017-10-30T04:32:03.637Z,20.53
2017-10-30T04:32:35.290Z,20.53
2017-10-30T04:33:06.938Z,20.52
2017-10-30T04:33:38.586Z,20.52
2017-10-30T04:34:10.237Z,20.51
2017-10-30T04:34:41.886Z,20.51
2017-10-30T04:35:13.796Z,20.51
2017-10-30T04:35:45.498Z,20.50
2017-10-30T04:36:17.142Z,20.50
2017-10-30T04:36:48.989Z,20.48
2017-10-30T04:37:20.667Z,20.48
2017-10-30T04:37:52.511Z,20.48
2017-10-30T04:38:24.262Z,20.48
2017-10-30T04:38:55.976Z,20.48
2017-10-30T04:39:27.740Z,20.48
2017-10-30T04:39:59.393Z,20.48
2017-10-30T04:40:31.042Z,20.49
2017-10-30T04:41:02.733Z,20.48
2017-10-30T04:41:34.378Z,20.48
2017-10-30T04:42:06.021Z,20.48
2017-10-30T04:42:37.713Z,20.49
2017-10-30T04:43:09.369Z,20.47
2017-10-30T04:43:41.009Z,20.47
2017-10-30T04:44:12.830Z,20.48
2017-10-30T04:44:44.583Z,20.49
2017-10-30T04:45:16.235Z,20.49
2017-10-30T04:45:47.877Z,20.49
2017-10-30T04:46:19.561Z,20.48
2017-10-30T04:46:51.209Z,20.48
2017-10-30T04:47:23.096Z,20.48
2017-10-30T04:47:54.932Z,20.49
2017-10-30T04:48:26.686Z,20.48
2017-10-30T04:48:58.636Z,20.49
2017-10-30T04:49:30.286Z,20.48
2017-10-30T04:50:01.933Z,20.49
2017-10-30T04:50:33.587Z,20.48
2017-10-30T04:51:05.235Z,20.50
2017-10-30T04:51:36.877Z,20.50
2017-10-30T04:52:08.517Z,20.51
2017-10-30T04:52:40.162Z,20.53
2017-10-30T04:53:11.809Z,20.56
2017-10-30T04:53:43.458Z,20.57
2017-10-30T04:54:15.363Z,20.59
2017-10-30T04:54:47.211Z,20.60
2017-10-30T04:55:18.857Z,20.62
2017-10-30T04:55:50.502Z,20.63
2017-10-30T04:56:22.148Z,20.66
2017-10-30T04:56:53.790Z,20.68
2017-10-30T04:57:25.442Z,20.70
2017-10-30T04:57:57.085Z,20.73
2017-10-30T04:58:28.730Z,20.75
2017-10-30T04:59:00.447Z,20.76
2017-10-30T04:59:32.098Z,20.78
2017-10-30T05:00:03.742Z,20.78
2017-10-30T05:00:35.390Z,20.79
2017-10-30T05:01:07.033Z,20.80
2017-10-30T05:01:38.678Z,20.79
2017-10-30T05:02:10.321Z,20.80
2017-10-30T05:02:41.969Z,20.81
2017-10-30T05:03:13.615Z,20.83
2017-10-30T05:03:45.270Z,20.83
2017-10-30T05:04:17.158Z,20.83
2017-10-30T05:04:48.823Z,20.82
2017-10-30T05:05:20.476Z,20.84
2017-10-30T05:05:52.117Z,20.85
2017-10-30T05:06:23.775Z,20.86
2017-10-30T05:06:55.426Z,20.89
2017-10-30T05:07:27.299Z,20.92
2017-10-30T05:07:58.973Z,20.92
2017-10-30T05:08:30.622Z,20.91
2017-10-30T05:09:02.273Z,20.90
2017-10-30T05:09:34.233Z,20.91
2017-10-30T05:10:05.922Z,20.91
2017-10-30T05:10:37.570Z,20.90
2017-10-30T05:11:09.438Z,20.92
2017-10-30T05:11:41.262Z,20.93
2017-10-30T05:12:13.030Z,20.93
2017-10-30T05:12:44.980Z,20.92
2017-10-30T05:13:16.630Z,20.92
2017-10-30T05:13:48.274Z,20.90
2017-10-30T05:14:19.962Z,20.89
2017-10-30T05:14:51.803Z,20.89
2017-10-30T05:15:23.449Z,20.88
2017-10-30T05:15:55.099Z,20.87
2017-10-30T05:16:26.776Z,20.88
2017-10-30T05:16:58.671Z,20.87
2017-10-30T05:17:30.317Z,20.89
2017-10-30T05:18:01.966Z,20.88
2017-10-30T05:18:33.963Z,20.86
2017-10-30T05:19:05.911Z,20.86
2017-10-30T05:19:37.860Z,20.87
2017-10-30T05:20:09.509Z,20.85
2017-10-30T05:20:41.153Z,20.84
2017-10-30T05:21:12.803Z,20.84
2017-10-30T05:21:44.450Z,20.83
2017-10-30T05:22:16.093Z,20.83
2017-10-30T05:22:47.738Z,20.82
2017-10-30T05:23:19.381Z,20.83
2017-10-30T05:23:51.026Z,20.81
2017-10-30T05:24:22.681Z,20.79
2017-10-30T05:24:54.330Z,20.78
2017-10-30T05:25:25.978Z,20.79
2017-10-30T05:25:57.630Z,20.78
2017-10-30T05:26:29.468Z,20.77
2017-10-30T05:27:01.117Z,20.78
2017-10-30T05:27:32.796Z,20.77
2017-10-30T05:28:04.446Z,20.77
2017-10-30T05:28:36.125Z,20.76
2017-10-30T05:29:07.781Z,20.76
2017-10-30T05:29:39.609Z,20.74
2017-10-30T05:30:11.257Z,20.73
2017-10-30T05:30:42.958Z,20.72
2017-10-30T05:31:14.609Z,20.72
2017-10-30T05:31:46.253Z,20.71
2017-10-30T05:32:17.902Z,20.70
2017-10-30T05:32:49.550Z,20.71
2017-10-30T05:33:21.194Z,20.70
2017-10-30T05:33:52.836Z,20.69
2017-10-30T05:34:25.014Z,20.68
2017-10-30T05:34:56.662Z,20.68
2017-10-30T05:35:28.346Z,20.68
2017-10-30T05:36:00.217Z,20.66
2017-10-30T05:36:32.135Z,20.65
2017-10-30T05:37:03.885Z,20.64
2017-10-30T05:37:35.760Z,20.65
2017-10-30T05:38:07.409Z,20.64
2017-10-30T05:38:39.050Z,20.63
2017-10-30T05:39:10.692Z,20.61
2017-10-30T05:39:42.398Z,20.61
2017-10-30T05:40:14.227Z,20.61
2017-10-30T05:40:45.993Z,20.60
2017-10-30T05:41:17.649Z,20.60
2017-10-30T05:41:49.298Z,20.60
2017-10-30T05:42:21.118Z,20.60
2017-10-30T05:42:52.809Z,20.60
2017-10-30T05:43:24.466Z,20.59
2017-10-30T05:43:56.109Z,20.58
2017-10-30T05:44:27.767Z,20.58
2017-10-30T05:44:59.435Z,20.58
2017-10-30T05:45:31.384Z,20.59
2017-10-30T05:46:03.033Z,20.59
2017-10-30T05:46:34.679Z,20.60
2017-10-30T05:47:06.378Z,20.62
2017-10-30T05:47:38.256Z,20.61
2017-10-30T05:48:10.208Z,20.60
2017-10-30T05:48:41.857Z,20.58
2017-10-30T05:49:13.502Z,20.58
2017-10-30T05:49:45.149Z,20.56
2017-10-30T05:50:16.798Z,20.56
2017-10-30T05:50:48.446Z,20.56
2017-10-30T05:51:20.094Z,20.55
2017-10-30T05:51:52.009Z,20.54
2017-10-30T05:52:23.661Z,20.54
2017-10-30T05:52:55.306Z,20.54
2017-10-30T05:53:26.954Z,20.55
2017-10-30T05:53:58.597Z,20.55
2017-10-30T05:54:30.245Z,20.56
2017-10-30T05:55:01.930Z,20.54
2017-10-30T05:55:33.758Z,20.55
2017-10-30T05:56:05.406Z,20.55
2017-10-30T05:56:37.059Z,20.53
2017-10-30T05:57:08.757Z,20.54
2017-10-30T05:57:40.411Z,20.52
2017-10-30T05:58:12.058Z,20.53
2017-10-30T05:58:43.709Z,20.51
2017-10-30T05:59:15.361Z,20.49
2017-10-30T05:59:47.013Z,20.49
2017-10-30T06:00:18.894Z,20.49
2017-10-30T06:00:50.546Z,20.48
2017-10-30T06:01:22.197Z,20.47
2017-10-30T06:01:53.842Z,20.46
2017-10-30T06:02:25.768Z,20.46
2017-10-30T06:02:57.612Z,20.47
2017-10-30T06:03:29.364Z,20.46
2017-10-30T06:04:01.016Z,20.46
2017-10-30T06:04:32.669Z,20.45
2017-10-30T06:05:04.318Z,20.45
2017-10-30T06:05:36.541Z,20.45
2017-10-30T06:06:08.376Z,20.44
2017-10-30T06:06:40.133Z,20.43
2017-10-30T06:07:11.973Z,20.44
2017-10-30T06:07:43.666Z,20.43
2017-10-30T06:08:15.313Z,20.42
2017-10-30T06:08:46.965Z,20.41
2017-10-30T06:09:18.609Z,20.42
2017-10-30T06:09:50.292Z,20.42
2017-10-30T06:10:21.941Z,20.42
2017-10-30T06:10:53.586Z,20.41
2017-10-30T06:11:25.233Z,20.40
2017-10-30T06:11:56.881Z,20.41
2017-10-30T06:12:28.525Z,20.40
2017-10-30T06:13:01.367Z,20.39
2017-10-30T06:13:33.260Z,20.39
2017-10-30T06:14:04.932Z,20.39
2017-10-30T06:14:36.586Z,20.38
2017-10-30T06:15:08.250Z,20.38
2017-10-30T06:15:39.897Z,20.38
2017-10-30T06:16:11.549Z,20.38
2017-10-30T06:16:43.193Z,20.38
2017-10-30T06:17:14.842Z,20.37
2017-10-30T06:17:46.490Z,20.38
2017-10-30T06:18:18.367Z,20.36
2017-10-30T06:18:50.048Z,20.36
2017-10-30T06:19:21.701Z,20.36
2017-10-30T06:19:53.345Z,20.37
2017-10-30T06:20:24.997Z,20.36
2017-10-30T06:20:56.645Z,20.36
2017-10-30T06:21:28.293Z,20.34
2017-10-30T06:21:59.938Z,20.35
2017-10-30T06:22:31.586Z,20.36
2017-10-30T06:23:03.238Z,20.35
2017-10-30T06:23:34.946Z,20.35
2017-10-30T06:24:06.594Z,20.35
2017-10-30T06:24:38.238Z,20.34
2017-10-30T06:25:09.878Z,20.33
2017-10-30T06:25:41.535Z,20.34
2017-10-30T06:26:13.182Z,20.34
2017-10-30T06:26:44.830Z,20.35
2017-10-30T06:27:16.478Z,20.41
2017-10-30T06:27:48.573Z,20.45
2017-10-30T06:28:20.523Z,20.45
2017-10-30T06:28:52.214Z,20.45
2017-10-30T06:29:23.861Z,20.42
2017-10-30T06:29:55.506Z,20.44
2017-10-30T06:30:27.397Z,20.50
2017-10-30T06:30:59.087Z,20.53
2017-10-30T06:31:30.988Z,20.47
2017-10-30T06:32:02.638Z,20.40
2017-10-30T06:32:34.289Z,20.35
2017-10-30T06:33:05.934Z,20.30
2017-10-30T06:33:37.580Z,20.23
2017-10-30T06:34:09.221Z,20.19
2017-10-30T06:34:40.869Z,20.11
2017-10-30T06:35:12.787Z,20.03
2017-10-30T06:35:44.453Z,19.96
2017-10-30T06:36:16.339Z,19.89
2017-10-30T06:36:48.022Z,19.84
2017-10-30T06:37:19.885Z,19.80
2017-10-30T06:37:51.534Z,19.76
2017-10-30T06:38:23.174Z,19.73
2017-10-30T06:38:54.826Z,19.70
2017-10-30T06:39:26.470Z,19.68
2017-10-30T06:39:58.118Z,19.66
2017-10-30T06:40:29.765Z,19.64
2017-10-30T06:41:01.411Z,19.59
2017-10-30T06:41:33.298Z,19.56
2017-10-30T06:42:05.055Z,19.54
2017-10-30T06:42:36.706Z,19.51
2017-10-30T06:43:08.354Z,19.48
2017-10-30T06:43:40.001Z,19.47
2017-10-30T06:44:11.645Z,19.46
2017-10-30T06:44:43.289Z,19.44
2017-10-30T06:45:15.074Z,19.40
2017-10-30T06:45:46.857Z,19.39
2017-10-30T06:46:18.505Z,19.38
2017-10-30T06:46:50.190Z,19.36
2017-10-30T06:47:21.837Z,19.34
2017-10-30T06:47:53.481Z,19.33
2017-10-30T06:48:25.130Z,19.30
2017-10-30T06:48:56.781Z,19.28